createdAt,value
2023-05-22T00:00:29.642Z,419.00
2023-05-22T00:01:29.646Z,416.00
2023-05-22T00:02:29.712Z,417.00
2023-05-22T00:03:29.710Z,417.00
2023-05-22T00:04:29.700Z,419.00
2023-05-22T00:05:29.711Z,419.00
2023-05-22T00:06:29.691Z,419.00
2023-05-22T00:07:29.704Z,420.00
2023-05-22T00:08:30.000Z,421.00
2023-05-22T00:09:29.761Z,419.00
2023-05-22T00:10:29.735Z,418.00
2023-05-22T00:11:29.752Z,420.00
2023-05-22T00:12:29.758Z,420.00
2023-05-22T00:13:29.774Z,419.00
2023-05-22T00:14:29.784Z,417.00
2023-05-22T00:15:29.789Z,417.00
2023-05-22T00:16:29.806Z,417.00
2023-05-22T00:17:29.877Z,418.00
2023-05-22T00:18:29.818Z,418.00
2023-05-22T00:19:29.894Z,418.00
2023-05-22T00:20:29.835Z,418.00
2023-05-22T00:21:29.842Z,419.00
2023-05-22T00:22:29.858Z,422.00
2023-05-22T00:23:29.876Z,419.00
2023-05-22T00:24:29.862Z,416.00
2023-05-22T00:25:29.875Z,416.00
2023-05-22T00:26:29.894Z,415.00
2023-05-22T00:27:29.908Z,414.00
2023-05-22T00:28:29.907Z,413.00
2023-05-22T00:29:29.928Z,414.00
2023-05-22T00:30:29.931Z,414.00
2023-05-22T00:31:29.940Z,414.00
2023-05-22T00:32:30.001Z,417.00
2023-05-22T00:33:29.971Z,416.00
2023-05-22T00:34:30.022Z,415.00
2023-05-22T00:35:29.986Z,414.00
2023-05-22T00:36:29.986Z,414.00
2023-05-22T00:37:30.094Z,413.00
2023-05-22T00:38:30.014Z,413.00
2023-05-22T00:39:30.028Z,411.00
2023-05-22T00:40:30.032Z,410.00
2023-05-22T00:41:30.052Z,409.00
2023-05-22T00:42:30.069Z,412.00
2023-05-22T00:43:30.076Z,411.00
2023-05-22T00:44:30.092Z,412.00
2023-05-22T00:45:30.114Z,415.00
2023-05-22T00:46:30.153Z,416.00
2023-05-22T00:47:30.143Z,419.00
2023-05-22T00:48:30.112Z,419.00
2023-05-22T00:49:30.120Z,418.00
2023-05-22T00:50:30.163Z,419.00
2023-05-22T00:51:30.193Z,420.00
2023-05-22T00:52:30.232Z,420.00
2023-05-22T00:53:30.380Z,418.00
2023-05-22T00:54:30.312Z,417.00
2023-05-22T00:55:30.338Z,415.00
2023-05-22T00:56:30.365Z,417.00
2023-05-22T00:57:30.404Z,417.00
2023-05-22T00:58:30.436Z,419.00
2023-05-22T00:59:30.464Z,421.00
2023-05-22T01:00:30.502Z,422.00
2023-05-22T01:01:30.564Z,421.00
2023-05-22T01:02:30.601Z,423.00
2023-05-22T01:03:30.648Z,421.00
2023-05-22T01:04:30.647Z,425.00
2023-05-22T01:05:30.688Z,423.00
2023-05-22T01:06:30.722Z,423.00
2023-05-22T01:07:30.751Z,422.00
2023-05-22T01:08:30.776Z,421.00
2023-05-22T01:09:30.801Z,422.00
2023-05-22T01:10:30.848Z,422.00
2023-05-22T01:11:30.869Z,421.00
2023-05-22T01:12:30.911Z,419.00
2023-05-22T01:13:30.912Z,423.00
2023-05-22T01:14:30.918Z,418.00
2023-05-22T01:15:30.933Z,421.00
2023-05-22T01:16:30.991Z,421.00
2023-05-22T01:17:30.970Z,418.00
2023-05-22T01:18:30.977Z,418.00
2023-05-22T01:19:31.095Z,418.00
2023-05-22T01:20:30.974Z,416.00
2023-05-22T01:21:30.980Z,415.00
2023-05-22T01:22:30.992Z,417.00
2023-05-22T01:23:31.016Z,419.00
2023-05-22T01:24:31.021Z,423.00
2023-05-22T01:25:31.121Z,422.00
2023-05-22T01:26:31.050Z,423.00
2023-05-22T01:27:31.050Z,423.00
2023-05-22T01:28:31.078Z,422.00
2023-05-22T01:29:31.071Z,420.00
2023-05-22T01:30:31.068Z,419.00
2023-05-22T01:31:31.096Z,419.00
2023-05-22T01:32:31.187Z,420.00
2023-05-22T01:33:31.204Z,420.00
2023-05-22T01:34:31.112Z,422.00
2023-05-22T01:35:31.121Z,422.00
2023-05-22T01:36:31.127Z,420.00
2023-05-22T01:37:31.154Z,418.00
2023-05-22T01:38:31.203Z,418.00
2023-05-22T01:39:31.208Z,419.00
2023-05-22T01:40:31.239Z,423.00
2023-05-22T01:41:31.282Z,424.00
2023-05-22T01:42:31.339Z,422.00
2023-05-22T01:43:31.349Z,421.00
2023-05-22T01:44:31.413Z,422.00
2023-05-22T01:45:31.470Z,423.00
2023-05-22T01:46:31.518Z,422.00
2023-05-22T01:47:31.562Z,422.00
2023-05-22T01:48:31.566Z,422.00
2023-05-22T01:49:31.610Z,423.00
2023-05-22T01:50:31.661Z,422.00
2023-05-22T01:51:31.674Z,423.00
2023-05-22T01:52:31.680Z,425.00
2023-05-22T01:53:31.683Z,424.00
2023-05-22T01:54:31.698Z,424.00
2023-05-22T01:55:31.711Z,424.00
2023-05-22T01:56:31.724Z,423.00
2023-05-22T01:57:31.735Z,422.00
2023-05-22T01:58:31.781Z,422.00
2023-05-22T01:59:31.754Z,422.00
2023-05-22T02:00:31.768Z,422.00
2023-05-22T02:01:31.814Z,421.00
2023-05-22T02:02:31.881Z,418.00
2023-05-22T02:03:31.862Z,418.00
2023-05-22T02:04:31.803Z,416.00
2023-05-22T02:05:31.804Z,419.00
2023-05-22T02:06:31.815Z,417.00
2023-05-22T02:07:31.835Z,415.00
2023-05-22T02:08:31.847Z,412.00
2023-05-22T02:09:31.858Z,411.00
2023-05-22T02:10:31.875Z,411.00
2023-05-22T02:11:31.880Z,412.00
2023-05-22T02:12:31.917Z,414.00
2023-05-22T02:13:31.910Z,414.00
2023-05-22T02:14:31.916Z,415.00
2023-05-22T02:15:31.947Z,412.00
2023-05-22T02:16:31.949Z,411.00
2023-05-22T02:17:31.995Z,412.00
2023-05-22T02:18:31.963Z,415.00
2023-05-22T02:19:32.025Z,415.00
2023-05-22T02:20:32.000Z,414.00
2023-05-22T02:21:32.005Z,412.00
2023-05-22T02:22:32.038Z,412.00
2023-05-22T02:23:32.042Z,413.00
2023-05-22T02:24:32.060Z,413.00
2023-05-22T02:25:32.090Z,413.00
2023-05-22T02:26:32.087Z,411.00
2023-05-22T02:27:32.109Z,411.00
2023-05-22T02:28:32.132Z,411.00
2023-05-22T02:29:32.135Z,411.00
2023-05-22T02:30:32.148Z,410.00
2023-05-22T02:31:32.269Z,410.00
2023-05-22T02:32:32.213Z,411.00
2023-05-22T02:33:32.211Z,410.00
2023-05-22T02:34:32.226Z,409.00
2023-05-22T02:35:32.229Z,408.00
2023-05-22T02:36:32.260Z,409.00
2023-05-22T02:37:32.309Z,409.00
2023-05-22T02:38:32.352Z,407.00
2023-05-22T02:39:32.412Z,411.00
2023-05-22T02:40:32.416Z,411.00
2023-05-22T02:41:32.442Z,412.00
2023-05-22T02:42:32.462Z,413.00
2023-05-22T02:43:32.457Z,413.00
2023-05-22T02:44:32.483Z,415.00
2023-05-22T02:45:32.492Z,414.00
2023-05-22T02:46:32.522Z,416.00
2023-05-22T02:47:32.591Z,418.00
2023-05-22T02:48:32.554Z,417.00
2023-05-22T02:49:32.566Z,418.00
2023-05-22T02:50:32.576Z,418.00
2023-05-22T02:51:32.586Z,416.00
2023-05-22T02:52:32.608Z,417.00
2023-05-22T02:53:32.615Z,415.00
2023-05-22T02:54:32.633Z,415.00
2023-05-22T02:55:32.646Z,414.00
2023-05-22T02:56:32.665Z,416.00
2023-05-22T02:57:32.684Z,418.00
2023-05-22T02:58:32.702Z,420.00
2023-05-22T02:59:32.710Z,421.00
2023-05-22T03:00:32.723Z,419.00
2023-05-22T03:01:32.859Z,418.00
2023-05-22T03:02:32.845Z,418.00
2023-05-22T03:03:32.809Z,418.00
2023-05-22T03:04:32.778Z,417.00
2023-05-22T03:05:32.793Z,418.00
2023-05-22T03:06:32.810Z,420.00
2023-05-22T03:07:32.822Z,417.00
2023-05-22T03:08:32.857Z,415.00
2023-05-22T03:09:32.860Z,412.00
2023-05-22T03:10:32.887Z,411.00
2023-05-22T03:11:32.892Z,414.00
2023-05-22T03:12:32.951Z,415.00
2023-05-22T03:13:32.928Z,414.00
2023-05-22T03:14:32.929Z,414.00
2023-05-22T03:15:32.937Z,412.00
2023-05-22T03:16:33.018Z,412.00
2023-05-22T03:17:33.078Z,413.00
2023-05-22T03:18:32.977Z,413.00
2023-05-22T03:19:33.019Z,414.00
2023-05-22T03:20:33.013Z,415.00
2023-05-22T03:21:33.057Z,416.00
2023-05-22T03:22:33.107Z,417.00
2023-05-22T03:23:33.158Z,415.00
2023-05-22T03:24:33.154Z,414.00
2023-05-22T03:25:33.165Z,414.00
2023-05-22T03:26:33.164Z,414.00
2023-05-22T03:27:33.200Z,414.00
2023-05-22T03:28:33.234Z,415.00
2023-05-22T03:29:33.198Z,416.00
2023-05-22T03:30:33.231Z,418.00
2023-05-22T03:31:33.239Z,417.00
2023-05-22T03:32:33.285Z,419.00
2023-05-22T03:33:33.307Z,419.00
2023-05-22T03:34:33.284Z,419.00
2023-05-22T03:35:33.291Z,421.00
2023-05-22T03:36:33.294Z,420.00
2023-05-22T03:37:33.315Z,421.00
2023-05-22T03:38:33.323Z,419.00
2023-05-22T03:39:33.326Z,422.00
2023-05-22T03:40:33.356Z,423.00
2023-05-22T03:41:33.427Z,422.00
2023-05-22T03:42:33.476Z,420.00
2023-05-22T03:43:33.519Z,417.00
2023-05-22T03:44:33.569Z,417.00
2023-05-22T03:45:33.642Z,417.00
2023-05-22T03:46:33.658Z,414.00
2023-05-22T03:47:33.767Z,414.00
2023-05-22T03:48:33.764Z,413.00
2023-05-22T03:49:33.802Z,413.00
2023-05-22T03:50:33.855Z,414.00
2023-05-22T03:51:33.895Z,415.00
2023-05-22T03:52:33.959Z,413.00
2023-05-22T03:53:33.986Z,413.00
2023-05-22T03:54:34.038Z,411.00
2023-05-22T03:55:34.073Z,410.00
2023-05-22T03:56:34.135Z,414.00
2023-05-22T03:57:34.178Z,416.00
2023-05-22T03:58:34.241Z,415.00
2023-05-22T03:59:34.274Z,414.00
2023-05-22T04:00:34.348Z,414.00
2023-05-22T04:01:34.385Z,414.00
2023-05-22T04:02:34.490Z,415.00
2023-05-22T04:03:34.535Z,413.00
2023-05-22T04:04:34.581Z,412.00
2023-05-22T04:05:34.660Z,410.00
2023-05-22T04:06:34.651Z,409.00
2023-05-22T04:07:34.738Z,412.00
2023-05-22T04:08:34.779Z,413.00
2023-05-22T04:09:34.808Z,414.00
2023-05-22T04:10:34.870Z,414.00
2023-05-22T04:11:34.909Z,414.00
2023-05-22T04:12:34.972Z,413.00
2023-05-22T04:13:35.010Z,414.00
2023-05-22T04:14:35.054Z,414.00
2023-05-22T04:15:35.126Z,415.00
2023-05-22T04:16:35.156Z,415.00
2023-05-22T04:17:35.229Z,414.00
2023-05-22T04:18:35.259Z,414.00
2023-05-22T04:19:35.322Z,416.00
2023-05-22T04:20:35.334Z,417.00
2023-05-22T04:21:35.485Z,415.00
2023-05-22T04:22:35.439Z,415.00
2023-05-22T04:23:35.470Z,416.00
2023-05-22T04:24:35.521Z,418.00
2023-05-22T04:25:35.553Z,420.00
2023-05-22T04:26:35.606Z,420.00
2023-05-22T04:27:35.647Z,420.00
2023-05-22T04:28:35.686Z,421.00
2023-05-22T04:29:35.725Z,418.00
2023-05-22T04:30:35.776Z,417.00
2023-05-22T04:31:35.988Z,419.00
2023-05-22T04:32:35.872Z,418.00
2023-05-22T04:33:35.900Z,417.00
2023-05-22T04:34:35.950Z,418.00
2023-05-22T04:35:36.019Z,416.00
2023-05-22T04:36:36.055Z,415.00
2023-05-22T04:37:36.046Z,413.00
2023-05-22T04:38:36.054Z,411.00
2023-05-22T04:39:36.081Z,411.00
2023-05-22T04:40:36.080Z,411.00
2023-05-22T04:41:36.089Z,408.00
2023-05-22T04:42:36.105Z,407.00
2023-05-22T04:43:36.112Z,406.00
2023-05-22T04:44:36.122Z,405.00
2023-05-22T04:45:36.133Z,405.00
2023-05-22T04:46:36.245Z,407.00
2023-05-22T04:47:36.172Z,408.00
2023-05-22T04:48:36.194Z,410.00
2023-05-22T04:49:36.197Z,414.00
2023-05-22T04:50:36.210Z,419.00
2023-05-22T04:51:36.205Z,423.00
2023-05-22T04:52:36.273Z,429.00
2023-05-22T04:53:36.367Z,433.00
2023-05-22T04:54:36.274Z,436.00
2023-05-22T04:55:36.284Z,435.00
2023-05-22T04:56:37.347Z,437.00
2023-05-22T04:57:36.320Z,436.00
2023-05-22T04:58:36.322Z,432.00
2023-05-22T04:59:36.353Z,430.00
2023-05-22T05:00:36.427Z,428.00
2023-05-22T05:01:36.450Z,429.00
2023-05-22T05:02:36.435Z,425.00
2023-05-22T05:03:36.489Z,424.00
2023-05-22T05:04:36.438Z,419.00
2023-05-22T05:05:36.466Z,420.00
2023-05-22T05:06:36.471Z,425.00
2023-05-22T05:07:36.491Z,431.00
2023-05-22T05:08:36.502Z,434.00
2023-05-22T05:09:36.538Z,433.00
2023-05-22T05:10:36.567Z,433.00
2023-05-22T05:11:36.574Z,433.00
2023-05-22T05:12:36.593Z,430.00
2023-05-22T05:13:36.602Z,430.00
2023-05-22T05:14:36.606Z,430.00
2023-05-22T05:15:36.653Z,430.00
2023-05-22T05:16:36.662Z,429.00
2023-05-22T05:17:36.712Z,433.00
2023-05-22T05:18:36.694Z,434.00
2023-05-22T05:19:37.169Z,432.00
2023-05-22T05:20:36.892Z,432.00
2023-05-22T05:21:36.754Z,432.00
2023-05-22T05:22:36.798Z,430.00
2023-05-22T05:23:36.792Z,429.00
2023-05-22T05:24:36.842Z,431.00
2023-05-22T05:25:36.939Z,431.00
2023-05-22T05:26:36.865Z,433.00
2023-05-22T05:27:36.887Z,436.00
2023-05-22T05:28:36.929Z,435.00
2023-05-22T05:29:36.966Z,434.00
2023-05-22T05:30:37.084Z,434.00
2023-05-22T05:31:36.983Z,434.00
2023-05-22T05:32:37.044Z,440.00
2023-05-22T05:33:37.079Z,452.00
2023-05-22T05:34:37.137Z,481.00
2023-05-22T05:35:37.218Z,505.00
2023-05-22T05:36:37.286Z,514.00
2023-05-22T05:37:37.377Z,515.00
2023-05-22T05:38:37.455Z,531.00
2023-05-22T05:39:37.558Z,547.00
2023-05-22T05:40:37.787Z,552.00
2023-05-22T05:41:37.815Z,553.00
2023-05-22T05:42:37.776Z,552.00
2023-05-22T05:43:37.817Z,551.00
2023-05-22T05:44:37.866Z,554.00
2023-05-22T05:45:37.899Z,559.00
2023-05-22T05:46:37.949Z,558.00
2023-05-22T05:47:38.020Z,556.00
2023-05-22T05:48:37.975Z,549.00
2023-05-22T05:49:38.008Z,554.00
2023-05-22T05:50:38.176Z,554.00
2023-05-22T05:51:38.083Z,548.00
2023-05-22T05:52:38.096Z,547.00
2023-05-22T05:53:38.133Z,556.00
2023-05-22T05:54:38.151Z,566.00
2023-05-22T05:55:38.211Z,576.00
2023-05-22T05:56:38.400Z,583.00
2023-05-22T05:57:38.353Z,607.00
2023-05-22T05:58:38.441Z,593.00
2023-05-22T05:59:38.538Z,591.00
2023-05-22T06:00:38.757Z,583.00
2023-05-22T06:01:38.834Z,585.00
2023-05-22T06:02:38.871Z,585.00
2023-05-22T06:03:39.012Z,573.00
2023-05-22T06:04:39.007Z,579.00
2023-05-22T06:05:39.168Z,578.00
2023-05-22T06:06:39.299Z,584.00
2023-05-22T06:07:39.306Z,582.00
2023-05-22T06:08:39.369Z,577.00
2023-05-22T06:09:39.426Z,573.00
2023-05-22T06:10:39.777Z,568.00
2023-05-22T06:11:39.624Z,567.00
2023-05-22T06:12:39.721Z,569.00
2023-05-22T06:13:39.796Z,572.00
2023-05-22T06:14:39.915Z,571.00
2023-05-22T06:15:39.996Z,568.00
2023-05-22T06:16:40.560Z,564.00
2023-05-22T06:17:40.212Z,564.00
2023-05-22T06:18:40.258Z,565.00
2023-05-22T06:19:40.364Z,564.00
2023-05-22T06:20:40.771Z,562.00
2023-05-22T06:21:40.532Z,562.00
2023-05-22T06:22:40.628Z,565.00
2023-05-22T06:23:40.713Z,566.00
2023-05-22T06:24:40.800Z,565.00
2023-05-22T06:25:40.891Z,562.00
2023-05-22T06:26:40.999Z,568.00
2023-05-22T06:27:41.060Z,591.00
2023-05-22T06:28:41.134Z,582.00
2023-05-22T06:29:41.215Z,585.00
2023-05-22T06:30:41.317Z,584.00
2023-05-22T06:31:41.451Z,589.00
2023-05-22T06:32:41.634Z,591.00
2023-05-22T06:33:41.554Z,594.00
2023-05-22T06:34:41.585Z,606.00
2023-05-22T06:35:41.636Z,620.00
2023-05-22T06:36:41.661Z,628.00
2023-05-22T06:37:41.680Z,630.00
2023-05-22T06:38:41.703Z,644.00
2023-05-22T06:39:41.709Z,653.00
2023-05-22T06:40:41.996Z,641.00
2023-05-22T06:41:41.754Z,651.00
2023-05-22T06:42:41.778Z,649.00
2023-05-22T06:43:41.815Z,646.00
2023-05-22T06:44:41.868Z,642.00
2023-05-22T06:45:41.945Z,688.00
2023-05-22T06:46:41.845Z,690.00
2023-05-22T06:47:41.928Z,698.00
2023-05-22T06:49:57.487Z,765.00
2023-05-22T06:50:57.516Z,773.00
2023-05-22T06:51:57.498Z,802.00
2023-05-22T06:52:57.500Z,866.00
2023-05-22T06:53:57.496Z,887.00
2023-05-22T06:54:57.500Z,907.00
2023-05-22T06:55:57.495Z,908.00
2023-05-22T06:56:57.526Z,913.00
2023-05-22T06:57:57.499Z,913.00
2023-05-22T06:58:57.477Z,918.00
2023-05-22T06:59:57.478Z,924.00
2023-05-22T07:00:57.639Z,968.00
2023-05-22T07:01:57.481Z,1014.00
2023-05-22T07:02:57.557Z,1005.00
2023-05-22T07:03:57.457Z,1007.00
2023-05-22T07:04:57.480Z,994.00
2023-05-22T07:05:57.563Z,957.00
2023-05-22T07:06:57.447Z,964.00
2023-05-22T07:07:57.483Z,945.00
2023-05-22T07:08:57.461Z,886.00
2023-05-22T07:09:57.467Z,849.00
2023-05-22T07:10:57.482Z,853.00
2023-05-22T07:11:57.501Z,853.00
2023-05-22T07:12:57.535Z,805.00
2023-05-22T07:13:57.500Z,819.00
2023-05-22T07:14:57.503Z,818.00
2023-05-22T07:15:57.536Z,810.00
2023-05-22T07:16:57.657Z,821.00
2023-05-22T07:17:57.560Z,831.00
2023-05-22T07:18:57.564Z,822.00
2023-05-22T07:19:57.544Z,822.00
2023-05-22T07:20:57.571Z,796.00
2023-05-22T07:21:57.576Z,796.00
2023-05-22T07:22:57.592Z,811.00
2023-05-22T07:23:57.616Z,814.00
2023-05-22T07:24:57.607Z,810.00
2023-05-22T07:25:57.629Z,784.00
2023-05-22T07:26:57.621Z,769.00
2023-05-22T07:27:57.625Z,769.00
2023-05-22T07:28:57.627Z,772.00
2023-05-22T07:29:57.637Z,781.00
2023-05-22T07:30:57.642Z,779.00
2023-05-22T07:31:57.730Z,721.00
2023-05-22T07:32:57.652Z,749.00
2023-05-22T07:33:57.643Z,757.00
2023-05-22T07:34:57.646Z,770.00
2023-05-22T07:35:57.640Z,790.00
2023-05-22T07:36:57.668Z,786.00
2023-05-22T07:37:57.650Z,639.00
2023-05-22T07:38:57.678Z,649.00
2023-05-22T07:39:57.639Z,583.00
2023-05-22T07:40:57.633Z,568.00
2023-05-22T07:41:59.406Z,610.00
2023-05-22T07:42:57.737Z,551.00
2023-05-22T07:43:57.800Z,579.00
2023-05-22T07:44:57.810Z,601.00
2023-05-22T07:45:57.859Z,609.00
2023-05-22T07:46:57.903Z,622.00
2023-05-22T07:47:57.925Z,638.00
2023-05-22T07:48:58.116Z,678.00
2023-05-22T07:49:58.007Z,681.00
2023-05-22T07:50:58.049Z,696.00
2023-05-22T07:51:58.114Z,706.00
2023-05-22T07:52:58.151Z,720.00
2023-05-22T07:54:58.219Z,693.00
2023-05-22T07:55:58.260Z,710.00
2023-05-22T07:56:58.299Z,724.00
2023-05-22T07:57:58.349Z,741.00
2023-05-22T07:58:58.370Z,744.00
2023-05-22T07:59:58.404Z,742.00
2023-05-22T08:00:58.415Z,743.00
2023-05-22T08:01:58.638Z,744.00
2023-05-22T08:02:58.591Z,733.00
2023-05-22T08:03:58.682Z,738.00
2023-05-22T08:04:58.616Z,746.00
2023-05-22T08:05:58.578Z,758.00
2023-05-22T08:06:58.591Z,772.00
2023-05-22T08:07:58.633Z,789.00
2023-05-22T08:08:58.609Z,807.00
2023-05-22T08:09:58.625Z,814.00
2023-05-22T08:11:58.626Z,844.00
2023-05-22T08:12:58.642Z,860.00
2023-05-22T08:13:58.626Z,872.00
2023-05-22T08:14:58.605Z,884.00
2023-05-22T08:16:00.415Z,910.00
2023-05-22T08:16:58.737Z,917.00
2023-05-22T08:17:58.716Z,923.00
2023-05-22T08:18:58.693Z,937.00
2023-05-22T08:19:58.695Z,924.00
2023-05-22T08:20:58.671Z,899.00
2023-05-22T08:21:58.682Z,931.00
2023-05-22T08:22:58.647Z,936.00
2023-05-22T08:23:58.637Z,934.00
2023-05-22T08:24:58.667Z,933.00
2023-05-22T08:25:58.676Z,930.00
2023-05-22T08:26:58.662Z,932.00
2023-05-22T08:27:58.648Z,934.00
2023-05-22T08:28:58.664Z,934.00
2023-05-22T08:29:58.683Z,931.00
2023-05-22T08:30:58.635Z,938.00
2023-05-22T08:31:58.712Z,806.00
2023-05-22T08:32:58.661Z,783.00
2023-05-22T08:33:58.625Z,784.00
2023-05-22T08:34:58.611Z,773.00
2023-05-22T08:35:58.623Z,743.00
2023-05-22T08:36:58.644Z,707.00
2023-05-22T08:37:58.622Z,673.00
2023-05-22T08:38:58.610Z,672.00
2023-05-22T08:39:58.568Z,654.00
2023-05-22T08:40:58.576Z,644.00
2023-05-22T08:41:58.566Z,632.00
2023-05-22T08:42:58.657Z,620.00
2023-05-22T08:43:58.643Z,605.00
2023-05-22T08:44:58.580Z,585.00
2023-05-22T08:45:58.574Z,572.00
2023-05-22T08:46:58.621Z,565.00
2023-05-22T08:47:58.593Z,565.00
2023-05-22T08:48:58.633Z,562.00
2023-05-22T08:49:58.576Z,544.00
2023-05-22T08:50:58.621Z,538.00
2023-05-22T08:51:58.574Z,550.00
2023-05-22T08:52:58.570Z,566.00
2023-05-22T08:53:58.627Z,651.00
2023-05-22T08:54:58.558Z,652.00
2023-05-22T08:55:58.555Z,661.00
2023-05-22T08:56:58.557Z,663.00
2023-05-22T08:57:58.588Z,666.00
2023-05-22T08:58:58.574Z,755.00
2023-05-22T08:59:58.558Z,734.00
2023-05-22T09:00:58.602Z,602.00
2023-05-22T09:01:58.583Z,649.00
2023-05-22T09:02:58.610Z,633.00
2023-05-22T09:03:58.619Z,630.00
2023-05-22T09:04:58.561Z,611.00
2023-05-22T09:05:58.560Z,571.00
2023-05-22T09:06:58.550Z,562.00
2023-05-22T09:08:08.438Z,564.00
2023-05-22T09:08:59.588Z,560.00
2023-05-22T09:09:58.550Z,551.00
2023-05-22T09:10:58.556Z,547.00
2023-05-22T09:11:58.568Z,542.00
2023-05-22T09:12:58.558Z,535.00
2023-05-22T09:13:58.582Z,524.00
2023-05-22T09:14:58.581Z,512.00
2023-05-22T09:15:58.566Z,506.00
2023-05-22T09:16:58.634Z,508.00
2023-05-22T09:17:58.610Z,497.00
2023-05-22T09:18:58.628Z,503.00
2023-05-22T09:19:58.581Z,504.00
2023-05-22T09:20:58.585Z,508.00
2023-05-22T09:21:58.587Z,524.00
2023-05-22T09:22:58.606Z,542.00
2023-05-22T09:23:58.624Z,553.00
2023-05-22T09:24:58.965Z,560.00
2023-05-22T09:25:58.614Z,613.00
2023-05-22T09:26:58.609Z,621.00
2023-05-22T09:27:58.610Z,630.00
2023-05-22T09:28:58.602Z,643.00
2023-05-22T09:29:58.602Z,656.00
2023-05-22T09:30:58.627Z,663.00
2023-05-22T09:31:58.640Z,648.00
2023-05-22T09:32:58.652Z,653.00
2023-05-22T09:33:58.588Z,658.00
2023-05-22T09:34:58.595Z,659.00
2023-05-22T09:35:58.573Z,675.00
2023-05-22T09:36:58.564Z,678.00
2023-05-22T09:37:58.578Z,690.00
2023-05-22T09:38:58.571Z,701.00
2023-05-22T09:39:58.608Z,706.00
2023-05-22T09:40:58.594Z,723.00
2023-05-22T09:41:58.575Z,698.00
2023-05-22T09:42:58.579Z,708.00
2023-05-22T09:44:00.335Z,715.00
2023-05-22T09:44:58.575Z,684.00
2023-05-22T09:45:58.631Z,710.00
2023-05-22T09:46:58.562Z,702.00
2023-05-22T09:47:58.613Z,729.00
2023-05-22T09:48:58.550Z,742.00
2023-05-22T09:49:58.545Z,745.00
2023-05-22T09:50:58.542Z,759.00
2023-05-22T09:51:58.555Z,767.00
2023-05-22T09:52:58.522Z,767.00
2023-05-22T09:53:58.508Z,759.00
2023-05-22T09:54:58.521Z,698.00
2023-05-22T09:55:58.519Z,709.00
2023-05-22T09:56:58.557Z,712.00
2023-05-22T09:57:58.532Z,718.00
2023-05-22T09:58:58.518Z,733.00
2023-05-22T09:59:58.549Z,748.00
2023-05-22T10:00:58.518Z,755.00
2023-05-22T10:01:58.605Z,759.00
2023-05-22T10:02:58.624Z,781.00
2023-05-22T10:03:58.660Z,807.00
2023-05-22T10:04:58.677Z,831.00
2023-05-22T10:05:58.808Z,832.00
2023-05-22T10:06:58.800Z,835.00
2023-05-22T10:07:58.885Z,843.00
2023-05-22T10:08:58.926Z,874.00
2023-05-22T10:09:58.979Z,887.00
2023-05-22T10:10:59.025Z,885.00
2023-05-22T10:11:59.081Z,886.00
2023-05-22T10:12:59.203Z,903.00
2023-05-22T10:13:59.056Z,907.00
2023-05-22T10:14:59.094Z,923.00
2023-05-22T10:15:59.138Z,933.00
2023-05-22T10:16:59.024Z,954.00
2023-05-22T10:17:59.048Z,967.00
2023-05-22T10:18:59.057Z,968.00
2023-05-22T10:19:58.990Z,968.00
2023-05-22T10:20:58.993Z,975.00
2023-05-22T10:21:58.993Z,984.00
2023-05-22T10:22:58.983Z,995.00
2023-05-22T10:23:58.997Z,992.00
2023-05-22T10:24:59.043Z,997.00
2023-05-22T10:25:59.091Z,1000.00
2023-05-22T10:26:59.132Z,999.00
2023-05-22T10:27:59.177Z,990.00
2023-05-22T10:28:59.306Z,982.00
2023-05-22T10:29:59.274Z,975.00
2023-05-22T10:30:59.312Z,959.00
2023-05-22T10:31:59.343Z,983.00
2023-05-22T10:32:59.452Z,998.00
2023-05-22T10:33:59.410Z,1038.00
2023-05-22T10:34:59.374Z,1054.00
2023-05-22T10:35:59.350Z,1045.00
2023-05-22T10:37:13.278Z,1041.00
2023-05-22T10:38:00.338Z,985.00
2023-05-22T10:38:59.331Z,942.00
2023-05-22T10:39:59.305Z,924.00
2023-05-22T10:40:59.317Z,804.00
2023-05-22T10:41:59.289Z,724.00
2023-05-22T10:42:59.302Z,717.00
2023-05-22T10:43:59.275Z,722.00
2023-05-22T10:44:59.363Z,689.00
2023-05-22T10:45:59.298Z,676.00
2023-05-22T10:46:59.267Z,679.00
2023-05-22T10:47:59.271Z,685.00
2023-05-22T10:48:59.241Z,685.00
2023-05-22T10:49:59.247Z,681.00
2023-05-22T10:51:00.010Z,683.00
2023-05-22T10:51:59.303Z,694.00
2023-05-22T10:52:59.375Z,737.00
2023-05-22T10:53:59.434Z,749.00
2023-05-22T10:54:59.401Z,760.00
2023-05-22T10:55:59.405Z,749.00
2023-05-22T10:56:59.375Z,757.00
2023-05-22T10:57:59.364Z,773.00
2023-05-22T10:58:59.385Z,793.00
2023-05-22T10:59:59.331Z,820.00
2023-05-22T11:00:59.395Z,847.00
2023-05-22T11:01:59.314Z,847.00
2023-05-22T11:03:10.073Z,844.00
2023-05-22T11:04:00.290Z,851.00
2023-05-22T11:04:59.267Z,842.00
2023-05-22T11:05:59.264Z,840.00
2023-05-22T11:06:59.229Z,834.00
2023-05-22T11:07:59.212Z,829.00
2023-05-22T11:08:59.190Z,842.00
2023-05-22T11:09:59.173Z,866.00
2023-05-22T11:10:59.309Z,880.00
2023-05-22T11:11:59.149Z,891.00
2023-05-22T11:12:59.139Z,902.00
2023-05-22T11:13:59.144Z,911.00
2023-05-22T11:14:59.216Z,920.00
2023-05-22T11:15:59.231Z,932.00
2023-05-22T11:16:59.377Z,951.00
2023-05-22T11:17:59.389Z,959.00
2023-05-22T11:19:00.608Z,966.00
2023-05-22T11:19:59.437Z,966.00
2023-05-22T11:20:59.332Z,964.00
2023-05-22T11:21:59.304Z,960.00
2023-05-22T11:22:59.291Z,954.00
2023-05-22T11:23:59.249Z,953.00
2023-05-22T11:24:59.288Z,959.00
2023-05-22T11:25:59.203Z,949.00
2023-05-22T11:26:59.199Z,834.00
2023-05-22T11:27:59.174Z,840.00
2023-05-22T11:28:59.160Z,870.00
2023-05-22T11:29:59.156Z,895.00
2023-05-22T11:30:59.187Z,889.00
2023-05-22T11:31:59.113Z,878.00
2023-05-22T11:32:59.198Z,871.00
2023-05-22T11:33:59.089Z,869.00
2023-05-22T11:34:59.074Z,857.00
2023-05-22T11:35:59.068Z,852.00
2023-05-22T11:36:59.061Z,845.00
2023-05-22T11:37:59.045Z,833.00
2023-05-22T11:38:59.030Z,815.00
2023-05-22T11:39:59.015Z,786.00
2023-05-22T11:40:59.006Z,772.00
2023-05-22T11:41:58.989Z,758.00
2023-05-22T11:42:58.989Z,740.00
2023-05-22T11:43:58.958Z,732.00
2023-05-22T11:44:58.950Z,722.00
2023-05-22T11:45:58.971Z,717.00
2023-05-22T11:46:58.926Z,708.00
2023-05-22T11:47:58.953Z,704.00
2023-05-22T11:48:58.994Z,701.00
2023-05-22T11:49:58.889Z,697.00
2023-05-22T11:50:58.900Z,692.00
2023-05-22T11:51:58.878Z,690.00
2023-05-22T11:52:58.895Z,688.00
2023-05-22T11:53:58.874Z,685.00
2023-05-22T11:54:58.856Z,678.00
2023-05-22T11:55:58.854Z,675.00
2023-05-22T11:56:58.896Z,673.00
2023-05-22T11:57:58.959Z,673.00
2023-05-22T11:58:59.009Z,669.00
2023-05-22T11:59:59.030Z,665.00
2023-05-22T12:00:59.066Z,660.00
2023-05-22T12:01:59.108Z,661.00
2023-05-22T12:02:59.470Z,660.00
2023-05-22T12:03:59.328Z,657.00
2023-05-22T12:04:59.332Z,654.00
2023-05-22T12:05:59.309Z,654.00
2023-05-22T12:06:59.402Z,650.00
2023-05-22T12:07:59.407Z,651.00
2023-05-22T12:08:59.424Z,651.00
2023-05-22T12:09:59.459Z,650.00
2023-05-22T12:10:59.461Z,648.00
2023-05-22T12:11:59.453Z,645.00
2023-05-22T12:12:59.432Z,645.00
2023-05-22T12:13:59.416Z,645.00
2023-05-22T12:14:59.407Z,644.00
2023-05-22T12:15:59.483Z,638.00
2023-05-22T12:16:59.435Z,637.00
2023-05-22T12:17:59.411Z,635.00
2023-05-22T12:18:59.388Z,631.00
2023-05-22T12:19:59.339Z,629.00
2023-05-22T12:20:59.425Z,625.00
2023-05-22T12:21:59.337Z,621.00
2023-05-22T12:22:59.313Z,617.00
2023-05-22T12:23:59.317Z,617.00
2023-05-22T12:24:59.276Z,615.00
2023-05-22T12:25:59.294Z,611.00
2023-05-22T12:26:59.265Z,612.00
2023-05-22T12:27:59.315Z,610.00
2023-05-22T12:28:59.349Z,606.00
2023-05-22T12:29:59.387Z,604.00
2023-05-22T12:30:59.419Z,605.00
2023-05-22T12:31:59.493Z,603.00